sensor_id;sensor_type;location;lat;lon;timestamp;P1;durP1;ratioP1;P2;durP2;ratioP2
33347;SDS011;19707;51.158;17.124;2022-10-17T00:02:34;44.40;;;32.40;;
33347;SDS011;19707;51.158;17.124;2022-10-17T00:05:39;51.20;;;34.15;;
33347;SDS011;19707;51.158;17.124;2022-10-17T00:08:43;46.55;;;32.83;;
33347;SDS011;19707;51.158;17.124;2022-10-17T00:11:45;45.05;;;30.10;;
33347;SDS011;19707;51.158;17.124;2022-10-17T00:14:47;46.80;;;31.07;;
33347;SDS011;19707;51.158;17.124;2022-10-17T00:17:48;45.52;;;32.60;;
33347;SDS011;19707;51.158;17.124;2022-10-17T00:20:49;51.58;;;33.02;;
33347;SDS011;19707;51.158;17.124;2022-10-17T00:23:51;44.73;;;30.97;;
33347;SDS011;19707;51.158;17.124;2022-10-17T00:26:54;45.63;;;32.58;;
33347;SDS011;19707;51.158;17.124;2022-10-17T00:29:55;49.42;;;33.02;;
33347;SDS011;19707;51.158;17.124;2022-10-17T00:32:57;51.68;;;35.85;;
33347;SDS011;19707;51.158;17.124;2022-10-17T00:36:11;49.63;;;31.85;;
33347;SDS011;19707;51.158;17.124;2022-10-17T00:39:12;49.73;;;34.75;;
33347;SDS011;19707;51.158;17.124;2022-10-17T00:42:13;45.78;;;32.85;;
33347;SDS011;19707;51.158;17.124;2022-10-17T00:45:17;48.42;;;33.18;;
33347;SDS011;19707;51.158;17.124;2022-10-17T00:48:27;45.35;;;33.28;;
33347;SDS011;19707;51.158;17.124;2022-10-17T00:51:40;48.08;;;33.08;;
33347;SDS011;19707;51.158;17.124;2022-10-17T00:55:09;45.30;;;32.05;;
33347;SDS011;19707;51.158;17.124;2022-10-17T00:58:02;51.37;;;35.85;;
33347;SDS011;19707;51.158;17.124;2022-10-17T01:01:05;45.00;;;32.75;;
33347;SDS011;19707;51.158;17.124;2022-10-17T01:04:06;42.95;;;31.17;;
33347;SDS011;19707;51.158;17.124;2022-10-17T01:07:08;41.37;;;31.12;;
33347;SDS011;19707;51.158;17.124;2022-10-17T01:10:09;40.15;;;29.75;;
33347;SDS011;19707;51.158;17.124;2022-10-17T01:13:12;40.73;;;28.90;;
33347;SDS011;19707;51.158;17.124;2022-10-17T01:16:45;42.67;;;31.12;;
33347;SDS011;19707;51.158;17.124;2022-10-17T01:31:11;45.17;;;33.05;;
33347;SDS011;19707;51.158;17.124;2022-10-17T01:34:17;51.08;;;35.48;;
33347;SDS011;19707;51.158;17.124;2022-10-17T01:37:31;52.78;;;36.17;;
33347;SDS011;19707;51.158;17.124;2022-10-17T01:40:48;47.48;;;35.65;;
33347;SDS011;19707;51.158;17.124;2022-10-17T01:43:55;54.40;;;36.05;;
33347;SDS011;19707;51.158;17.124;2022-10-17T01:47:12;50.10;;;32.80;;
33347;SDS011;19707;51.158;17.124;2022-10-17T01:50:22;52.15;;;35.00;;
33347;SDS011;19707;51.158;17.124;2022-10-17T01:53:27;57.85;;;36.63;;
33347;SDS011;19707;51.158;17.124;2022-10-17T01:56:32;57.48;;;35.68;;
33347;SDS011;19707;51.158;17.124;2022-10-17T01:59:38;50.80;;;32.98;;
33347;SDS011;19707;51.158;17.124;2022-10-17T02:02:42;48.30;;;34.33;;
33347;SDS011;19707;51.158;17.124;2022-10-17T02:05:45;46.40;;;32.80;;
33347;SDS011;19707;51.158;17.124;2022-10-17T02:08:47;49.63;;;33.42;;
33347;SDS011;19707;51.158;17.124;2022-10-17T02:12:10;44.88;;;32.33;;
33347;SDS011;19707;51.158;17.124;2022-10-17T02:18:58;52.73;;;35.38;;
33347;SDS011;19707;51.158;17.124;2022-10-17T02:22:23;47.80;;;34.65;;
33347;SDS011;19707;51.158;17.124;2022-10-17T02:25:38;47.20;;;33.40;;
33347;SDS011;19707;51.158;17.124;2022-10-17T02:29:00;50.30;;;35.10;;
33347;SDS011;19707;51.158;17.124;2022-10-17T02:35:41;50.78;;;32.85;;
33347;SDS011;19707;51.158;17.124;2022-10-17T02:38:46;51.48;;;34.70;;
33347;SDS011;19707;51.158;17.124;2022-10-17T02:41:49;43.42;;;29.65;;
33347;SDS011;19707;51.158;17.124;2022-10-17T02:44:52;41.60;;;29.40;;
33347;SDS011;19707;51.158;17.124;2022-10-17T02:47:56;43.52;;;30.45;;
33347;SDS011;19707;51.158;17.124;2022-10-17T02:51:04;48.28;;;33.73;;
33347;SDS011;19707;51.158;17.124;2022-10-17T03:00:42;51.70;;;34.55;;
33347;SDS011;19707;51.158;17.124;2022-10-17T03:03:44;45.52;;;33.98;;
33347;SDS011;19707;51.158;17.124;2022-10-17T03:06:45;55.90;;;36.17;;
33347;SDS011;19707;51.158;17.124;2022-10-17T03:09:48;55.67;;;35.98;;
33347;SDS011;19707;51.158;17.124;2022-10-17T03:12:49;52.55;;;35.80;;
33347;SDS011;19707;51.158;17.124;2022-10-17T03:15:50;52.25;;;34.83;;
33347;SDS011;19707;51.158;17.124;2022-10-17T03:18:51;49.53;;;34.70;;
33347;SDS011;19707;51.158;17.124;2022-10-17T03:21:53;46.85;;;33.05;;
33347;SDS011;19707;51.158;17.124;2022-10-17T03:24:56;42.78;;;31.10;;
33347;SDS011;19707;51.158;17.124;2022-10-17T03:27:58;45.58;;;32.40;;
33347;SDS011;19707;51.158;17.124;2022-10-17T03:31:07;56.58;;;35.75;;
33347;SDS011;19707;51.158;17.124;2022-10-17T03:34:12;46.08;;;33.45;;
33347;SDS011;19707;51.158;17.124;2022-10-17T03:37:15;52.85;;;34.63;;
33347;SDS011;19707;51.158;17.124;2022-10-17T03:40:16;46.63;;;32.33;;
33347;SDS011;19707;51.158;17.124;2022-10-17T03:43:18;61.70;;;34.90;;
33347;SDS011;19707;51.158;17.124;2022-10-17T03:46:19;50.73;;;34.55;;
33347;SDS011;19707;51.158;17.124;2022-10-17T03:49:20;42.35;;;31.85;;
33347;SDS011;19707;51.158;17.124;2022-10-17T03:52:21;53.45;;;35.63;;
33347;SDS011;19707;51.158;17.124;2022-10-17T03:55:23;53.55;;;36.35;;
33347;SDS011;19707;51.158;17.124;2022-10-17T03:58:24;47.75;;;32.93;;
33347;SDS011;19707;51.158;17.124;2022-10-17T04:01:26;44.58;;;32.70;;
33347;SDS011;19707;51.158;17.124;2022-10-17T04:04:27;56.02;;;36.08;;
33347;SDS011;19707;51.158;17.124;2022-10-17T04:07:28;52.67;;;35.38;;
33347;SDS011;19707;51.158;17.124;2022-10-17T04:10:30;48.70;;;34.13;;
33347;SDS011;19707;51.158;17.124;2022-10-17T04:13:31;44.67;;;32.13;;
33347;SDS011;19707;51.158;17.124;2022-10-17T04:16:33;52.53;;;34.65;;
33347;SDS011;19707;51.158;17.124;2022-10-17T04:19:34;45.60;;;31.90;;
33347;SDS011;19707;51.158;17.124;2022-10-17T04:22:35;45.50;;;32.73;;
33347;SDS011;19707;51.158;17.124;2022-10-17T04:25:37;49.98;;;34.75;;
33347;SDS011;19707;51.158;17.124;2022-10-17T04:28:38;46.02;;;33.25;;
33347;SDS011;19707;51.158;17.124;2022-10-17T04:31:39;51.33;;;35.38;;
33347;SDS011;19707;51.158;17.124;2022-10-17T04:34:40;58.95;;;37.58;;
33347;SDS011;19707;51.158;17.124;2022-10-17T04:37:42;44.63;;;33.58;;
33347;SDS011;19707;51.158;17.124;2022-10-17T04:40:43;48.55;;;34.35;;
33347;SDS011;19707;51.158;17.124;2022-10-17T04:43:44;45.00;;;33.98;;
33347;SDS011;19707;51.158;17.124;2022-10-17T04:46:46;46.98;;;33.05;;
33347;SDS011;19707;51.158;17.124;2022-10-17T04:49:47;42.38;;;32.48;;
33347;SDS011;19707;51.158;17.124;2022-10-17T04:52:49;55.80;;;36.70;;
33347;SDS011;19707;51.158;17.124;2022-10-17T04:55:50;62.62;;;40.40;;
33347;SDS011;19707;51.158;17.124;2022-10-17T04:58:51;53.60;;;36.93;;
33347;SDS011;19707;51.158;17.124;2022-10-17T05:01:52;59.58;;;37.65;;
33347;SDS011;19707;51.158;17.124;2022-10-17T05:04:54;53.13;;;34.73;;
33347;SDS011;19707;51.158;17.124;2022-10-17T05:07:55;50.17;;;34.55;;
33347;SDS011;19707;51.158;17.124;2022-10-17T05:10:56;47.58;;;33.40;;
33347;SDS011;19707;51.158;17.124;2022-10-17T05:13:59;52.90;;;37.03;;
33347;SDS011;19707;51.158;17.124;2022-10-17T05:17:01;45.00;;;33.30;;
33347;SDS011;19707;51.158;17.124;2022-10-17T05:20:03;51.70;;;36.80;;
33347;SDS011;19707;51.158;17.124;2022-10-17T05:23:05;48.70;;;34.88;;
33347;SDS011;19707;51.158;17.124;2022-10-17T05:26:06;54.88;;;38.73;;
33347;SDS011;19707;51.158;17.124;2022-10-17T05:29:08;52.33;;;37.23;;
33347;SDS011;19707;51.158;17.124;2022-10-17T05:32:10;58.45;;;38.73;;
33347;SDS011;19707;51.158;17.124;2022-10-17T05:35:11;56.28;;;34.75;;
33347;SDS011;19707;51.158;17.124;2022-10-17T05:41:13;55.88;;;36.40;;
33347;SDS011;19707;51.158;17.124;2022-10-17T05:44:14;52.98;;;36.15;;
33347;SDS011;19707;51.158;17.124;2022-10-17T05:47:16;55.78;;;37.78;;
33347;SDS011;19707;51.158;17.124;2022-10-17T05:50:17;55.03;;;38.55;;
33347;SDS011;19707;51.158;17.124;2022-10-17T05:53:20;49.08;;;35.48;;
33347;SDS011;19707;51.158;17.124;2022-10-17T05:56:22;57.40;;;38.50;;
33347;SDS011;19707;51.158;17.124;2022-10-17T05:59:24;52.85;;;37.80;;
33347;SDS011;19707;51.158;17.124;2022-10-17T06:02:26;55.98;;;36.05;;
33347;SDS011;19707;51.158;17.124;2022-10-17T06:05:27;53.48;;;36.50;;
33347;SDS011;19707;51.158;17.124;2022-10-17T06:08:28;54.53;;;37.60;;
33347;SDS011;19707;51.158;17.124;2022-10-17T06:11:30;57.05;;;37.08;;
33347;SDS011;19707;51.158;17.124;2022-10-17T06:14:32;56.83;;;37.83;;
33347;SDS011;19707;51.158;17.124;2022-10-17T06:20:34;61.53;;;39.23;;
33347;SDS011;19707;51.158;17.124;2022-10-17T06:23:36;61.77;;;39.67;;
33347;SDS011;19707;51.158;17.124;2022-10-17T06:26:38;57.62;;;39.60;;
33347;SDS011;19707;51.158;17.124;2022-10-17T06:29:39;62.78;;;40.55;;
33347;SDS011;19707;51.158;17.124;2022-10-17T06:32:40;66.53;;;39.08;;
33347;SDS011;19707;51.158;17.124;2022-10-17T06:35:41;58.80;;;39.90;;
33347;SDS011;19707;51.158;17.124;2022-10-17T06:38:43;60.75;;;39.55;;
33347;SDS011;19707;51.158;17.124;2022-10-17T06:41:44;56.33;;;39.03;;
33347;SDS011;19707;51.158;17.124;2022-10-17T06:44:45;66.55;;;40.67;;
33347;SDS011;19707;51.158;17.124;2022-10-17T06:47:47;58.52;;;40.35;;
33347;SDS011;19707;51.158;17.124;2022-10-17T06:50:49;60.05;;;41.45;;
33347;SDS011;19707;51.158;17.124;2022-10-17T06:53:50;56.35;;;38.80;;
33347;SDS011;19707;51.158;17.124;2022-10-17T06:56:51;57.40;;;37.73;;
33347;SDS011;19707;51.158;17.124;2022-10-17T06:59:53;55.05;;;37.48;;
33347;SDS011;19707;51.158;17.124;2022-10-17T07:02:55;52.33;;;37.58;;
33347;SDS011;19707;51.158;17.124;2022-10-17T07:05:57;49.90;;;36.00;;
33347;SDS011;19707;51.158;17.124;2022-10-17T07:08:58;58.90;;;36.13;;
33347;SDS011;19707;51.158;17.124;2022-10-17T07:12:02;61.58;;;41.33;;
33347;SDS011;19707;51.158;17.124;2022-10-17T07:15:06;69.40;;;44.63;;
33347;SDS011;19707;51.158;17.124;2022-10-17T07:18:09;62.55;;;41.92;;
33347;SDS011;19707;51.158;17.124;2022-10-17T07:21:11;66.05;;;43.30;;
33347;SDS011;19707;51.158;17.124;2022-10-17T07:24:12;70.45;;;46.45;;
33347;SDS011;19707;51.158;17.124;2022-10-17T07:27:14;72.70;;;46.85;;
33347;SDS011;19707;51.158;17.124;2022-10-17T07:30:15;73.52;;;48.00;;
33347;SDS011;19707;51.158;17.124;2022-10-17T07:33:17;66.90;;;45.05;;
33347;SDS011;19707;51.158;17.124;2022-10-17T07:36:19;72.20;;;43.90;;
33347;SDS011;19707;51.158;17.124;2022-10-17T07:39:20;57.73;;;40.33;;
33347;SDS011;19707;51.158;17.124;2022-10-17T07:42:22;61.83;;;40.85;;
33347;SDS011;19707;51.158;17.124;2022-10-17T07:45:23;57.93;;;39.75;;
33347;SDS011;19707;51.158;17.124;2022-10-17T07:48:26;56.60;;;36.40;;
33347;SDS011;19707;51.158;17.124;2022-10-17T07:51:28;48.75;;;35.30;;
33347;SDS011;19707;51.158;17.124;2022-10-17T07:54:30;44.30;;;33.58;;
33347;SDS011;19707;51.158;17.124;2022-10-17T07:57:31;49.00;;;33.28;;
33347;SDS011;19707;51.158;17.124;2022-10-17T08:00:32;40.15;;;28.65;;
33347;SDS011;19707;51.158;17.124;2022-10-17T08:03:35;39.90;;;28.17;;
33347;SDS011;19707;51.158;17.124;2022-10-17T08:06:37;37.10;;;27.42;;
33347;SDS011;19707;51.158;17.124;2022-10-17T08:09:38;33.05;;;25.65;;
33347;SDS011;19707;51.158;17.124;2022-10-17T08:12:39;36.23;;;26.90;;
33347;SDS011;19707;51.158;17.124;2022-10-17T08:15:41;33.58;;;26.23;;
33347;SDS011;19707;51.158;17.124;2022-10-17T08:18:42;29.55;;;23.15;;
33347;SDS011;19707;51.158;17.124;2022-10-17T08:21:44;34.03;;;24.10;;
33347;SDS011;19707;51.158;17.124;2022-10-17T08:24:46;27.17;;;21.48;;
33347;SDS011;19707;51.158;17.124;2022-10-17T08:27:47;26.12;;;21.10;;
33347;SDS011;19707;51.158;17.124;2022-10-17T08:30:49;30.48;;;23.15;;
33347;SDS011;19707;51.158;17.124;2022-10-17T08:33:50;25.65;;;20.92;;
33347;SDS011;19707;51.158;17.124;2022-10-17T08:36:51;26.65;;;22.32;;
33347;SDS011;19707;51.158;17.124;2022-10-17T08:39:52;28.92;;;21.93;;
33347;SDS011;19707;51.158;17.124;2022-10-17T08:43:01;29.77;;;21.97;;
33347;SDS011;19707;51.158;17.124;2022-10-17T08:46:04;24.18;;;20.15;;
33347;SDS011;19707;51.158;17.124;2022-10-17T08:49:10;25.95;;;20.70;;
33347;SDS011;19707;51.158;17.124;2022-10-17T08:52:46;28.70;;;21.05;;
33347;SDS011;19707;51.158;17.124;2022-10-17T08:55:54;26.00;;;20.00;;
33347;SDS011;19707;51.158;17.124;2022-10-17T08:58:56;26.70;;;20.60;;
33347;SDS011;19707;51.158;17.124;2022-10-17T09:19:29;27.90;;;19.87;;
33347;SDS011;19707;51.158;17.124;2022-10-17T09:22:43;23.83;;;18.90;;
33347;SDS011;19707;51.158;17.124;2022-10-17T09:25:55;25.27;;;19.25;;
33347;SDS011;19707;51.158;17.124;2022-10-17T09:28:59;26.45;;;18.48;;
33347;SDS011;19707;51.158;17.124;2022-10-17T09:32:02;22.20;;;19.23;;
33347;SDS011;19707;51.158;17.124;2022-10-17T09:35:10;27.15;;;19.15;;
33347;SDS011;19707;51.158;17.124;2022-10-17T09:38:16;23.95;;;19.42;;
33347;SDS011;19707;51.158;17.124;2022-10-17T09:41:25;24.70;;;19.10;;
33347;SDS011;19707;51.158;17.124;2022-10-17T09:44:46;23.57;;;19.05;;
33347;SDS011;19707;51.158;17.124;2022-10-17T09:47:49;24.32;;;18.40;;
33347;SDS011;19707;51.158;17.124;2022-10-17T09:50:57;32.73;;;19.40;;
33347;SDS011;19707;51.158;17.124;2022-10-17T09:54:02;22.52;;;18.37;;
33347;SDS011;19707;51.158;17.124;2022-10-17T09:57:07;22.50;;;19.73;;
33347;SDS011;19707;51.158;17.124;2022-10-17T10:00:18;22.10;;;17.35;;
33347;SDS011;19707;51.158;17.124;2022-10-17T10:03:27;20.72;;;17.55;;
33347;SDS011;19707;51.158;17.124;2022-10-17T10:06:30;22.90;;;19.23;;
33347;SDS011;19707;51.158;17.124;2022-10-17T10:09:33;24.12;;;18.95;;
33347;SDS011;19707;51.158;17.124;2022-10-17T10:12:37;29.50;;;19.77;;
33347;SDS011;19707;51.158;17.124;2022-10-17T10:15:41;24.10;;;17.50;;
33347;SDS011;19707;51.158;17.124;2022-10-17T10:18:44;21.17;;;16.87;;
33347;SDS011;19707;51.158;17.124;2022-10-17T10:21:55;24.40;;;17.52;;
33347;SDS011;19707;51.158;17.124;2022-10-17T10:25:13;18.92;;;15.20;;
33347;SDS011;19707;51.158;17.124;2022-10-17T10:28:16;21.55;;;16.77;;
33347;SDS011;19707;51.158;17.124;2022-10-17T10:31:24;20.85;;;17.42;;
33347;SDS011;19707;51.158;17.124;2022-10-17T10:34:34;19.02;;;15.72;;
33347;SDS011;19707;51.158;17.124;2022-10-17T10:37:37;25.68;;;16.95;;
33347;SDS011;19707;51.158;17.124;2022-10-17T10:40:44;20.57;;;16.40;;
33347;SDS011;19707;51.158;17.124;2022-10-17T10:43:50;18.40;;;14.75;;
33347;SDS011;19707;51.158;17.124;2022-10-17T10:47:08;19.32;;;15.30;;
33347;SDS011;19707;51.158;17.124;2022-10-17T10:50:35;21.97;;;15.72;;
33347;SDS011;19707;51.158;17.124;2022-10-17T10:56:54;16.48;;;13.70;;
33347;SDS011;19707;51.158;17.124;2022-10-17T11:00:02;17.77;;;13.88;;
33347;SDS011;19707;51.158;17.124;2022-10-17T11:03:15;17.35;;;13.25;;
33347;SDS011;19707;51.158;17.124;2022-10-17T11:06:21;16.12;;;14.43;;
33347;SDS011;19707;51.158;17.124;2022-10-17T11:16:21;19.40;;;13.72;;
33347;SDS011;19707;51.158;17.124;2022-10-17T11:20:02;17.60;;;15.08;;
33347;SDS011;19707;51.158;17.124;2022-10-17T11:26:23;23.07;;;17.27;;
33347;SDS011;19707;51.158;17.124;2022-10-17T11:29:32;18.05;;;14.10;;
33347;SDS011;19707;51.158;17.124;2022-10-17T11:32:41;15.55;;;13.88;;
33347;SDS011;19707;51.158;17.124;2022-10-17T11:35:48;18.70;;;14.55;;
33347;SDS011;19707;51.158;17.124;2022-10-17T11:38:55;16.48;;;13.65;;
33347;SDS011;19707;51.158;17.124;2022-10-17T11:42:11;18.27;;;13.60;;
33347;SDS011;19707;51.158;17.124;2022-10-17T11:45:15;17.30;;;15.40;;
33347;SDS011;19707;51.158;17.124;2022-10-17T11:48:20;16.37;;;14.25;;
33347;SDS011;19707;51.158;17.124;2022-10-17T11:51:29;19.50;;;15.08;;
33347;SDS011;19707;51.158;17.124;2022-10-17T11:54:44;20.17;;;15.63;;
33347;SDS011;19707;51.158;17.124;2022-10-17T12:04:53;18.10;;;14.00;;
33347;SDS011;19707;51.158;17.124;2022-10-17T12:08:16;16.10;;;13.75;;
33347;SDS011;19707;51.158;17.124;2022-10-17T12:11:50;20.32;;;14.47;;
33347;SDS011;19707;51.158;17.124;2022-10-17T12:18:28;21.42;;;16.93;;
33347;SDS011;19707;51.158;17.124;2022-10-17T12:25:00;15.78;;;14.13;;
33347;SDS011;19707;51.158;17.124;2022-10-17T12:34:25;17.95;;;14.18;;
33347;SDS011;19707;51.158;17.124;2022-10-17T12:40:55;18.60;;;13.00;;
33347;SDS011;19707;51.158;17.124;2022-10-17T12:43:57;16.60;;;14.38;;
33347;SDS011;19707;51.158;17.124;2022-10-17T12:54:11;19.95;;;13.78;;
33347;SDS011;19707;51.158;17.124;2022-10-17T13:03:46;14.58;;;12.73;;
33347;SDS011;19707;51.158;17.124;2022-10-17T13:06:52;16.45;;;14.23;;
33347;SDS011;19707;51.158;17.124;2022-10-17T13:09:56;15.43;;;12.65;;
33347;SDS011;19707;51.158;17.124;2022-10-17T13:13:04;19.92;;;14.83;;
33347;SDS011;19707;51.158;17.124;2022-10-17T13:19:41;16.05;;;13.55;;
33347;SDS011;19707;51.158;17.124;2022-10-17T13:22:44;17.70;;;13.78;;
33347;SDS011;19707;51.158;17.124;2022-10-17T13:25:45;15.65;;;13.93;;
33347;SDS011;19707;51.158;17.124;2022-10-17T13:32:14;17.25;;;15.32;;
33347;SDS011;19707;51.158;17.124;2022-10-17T13:35:21;18.32;;;15.15;;
33347;SDS011;19707;51.158;17.124;2022-10-17T13:41:33;23.07;;;19.10;;
33347;SDS011;19707;51.158;17.124;2022-10-17T13:44:34;22.40;;;17.17;;
33347;SDS011;19707;51.158;17.124;2022-10-17T13:47:36;26.42;;;20.30;;
33347;SDS011;19707;51.158;17.124;2022-10-17T13:50:40;24.67;;;18.35;;
33347;SDS011;19707;51.158;17.124;2022-10-17T13:53:42;15.65;;;13.80;;
33347;SDS011;19707;51.158;17.124;2022-10-17T13:56:44;21.25;;;16.32;;
33347;SDS011;19707;51.158;17.124;2022-10-17T13:59:49;18.67;;;16.00;;
33347;SDS011;19707;51.158;17.124;2022-10-17T14:02:54;25.77;;;16.70;;
33347;SDS011;19707;51.158;17.124;2022-10-17T14:09:21;22.60;;;18.50;;
33347;SDS011;19707;51.158;17.124;2022-10-17T14:12:28;33.13;;;25.55;;
33347;SDS011;19707;51.158;17.124;2022-10-17T14:15:30;22.02;;;18.15;;
33347;SDS011;19707;51.158;17.124;2022-10-17T14:18:34;21.07;;;17.23;;
33347;SDS011;19707;51.158;17.124;2022-10-17T14:21:36;24.80;;;17.98;;
33347;SDS011;19707;51.158;17.124;2022-10-17T14:24:37;23.65;;;16.75;;
33347;SDS011;19707;51.158;17.124;2022-10-17T14:27:54;27.85;;;17.60;;
33347;SDS011;19707;51.158;17.124;2022-10-17T14:34:30;22.27;;;16.65;;
33347;SDS011;19707;51.158;17.124;2022-10-17T14:40:49;28.30;;;21.05;;
33347;SDS011;19707;51.158;17.124;2022-10-17T14:43:55;24.98;;;18.02;;
33347;SDS011;19707;51.158;17.124;2022-10-17T14:47:06;20.95;;;17.48;;
33347;SDS011;19707;51.158;17.124;2022-10-17T14:53:23;25.82;;;17.27;;
33347;SDS011;19707;51.158;17.124;2022-10-17T14:56:23;33.88;;;26.25;;
33347;SDS011;19707;51.158;17.124;2022-10-17T14:59:27;30.20;;;20.85;;
33347;SDS011;19707;51.158;17.124;2022-10-17T15:02:29;23.12;;;17.12;;
33347;SDS011;19707;51.158;17.124;2022-10-17T15:05:30;28.45;;;19.35;;
33347;SDS011;19707;51.158;17.124;2022-10-17T15:08:32;26.27;;;20.77;;
33347;SDS011;19707;51.158;17.124;2022-10-17T15:11:33;32.85;;;27.07;;
33347;SDS011;19707;51.158;17.124;2022-10-17T15:14:35;29.77;;;23.18;;
33347;SDS011;19707;51.158;17.124;2022-10-17T15:17:36;27.73;;;21.23;;
33347;SDS011;19707;51.158;17.124;2022-10-17T15:20:38;33.13;;;23.62;;
33347;SDS011;19707;51.158;17.124;2022-10-17T15:23:39;26.30;;;18.42;;
33347;SDS011;19707;51.158;17.124;2022-10-17T15:26:42;29.50;;;22.93;;
33347;SDS011;19707;51.158;17.124;2022-10-17T15:29:43;26.82;;;22.60;;
33347;SDS011;19707;51.158;17.124;2022-10-17T15:32:45;28.83;;;22.98;;
33347;SDS011;19707;51.158;17.124;2022-10-17T15:35:47;29.98;;;21.48;;
33347;SDS011;19707;51.158;17.124;2022-10-17T15:38:49;26.68;;;19.35;;
33347;SDS011;19707;51.158;17.124;2022-10-17T15:41:53;27.13;;;19.05;;
33347;SDS011;19707;51.158;17.124;2022-10-17T15:44:59;23.10;;;18.48;;
33347;SDS011;19707;51.158;17.124;2022-10-17T15:48:03;29.70;;;20.32;;
33347;SDS011;19707;51.158;17.124;2022-10-17T15:51:06;26.33;;;18.35;;
33347;SDS011;19707;51.158;17.124;2022-10-17T15:54:08;22.95;;;17.90;;
33347;SDS011;19707;51.158;17.124;2022-10-17T15:57:17;27.65;;;20.55;;
33347;SDS011;19707;51.158;17.124;2022-10-17T16:00:23;30.08;;;22.17;;
33347;SDS011;19707;51.158;17.124;2022-10-17T16:03:25;42.38;;;29.18;;
33347;SDS011;19707;51.158;17.124;2022-10-17T16:06:27;33.00;;;24.20;;
33347;SDS011;19707;51.158;17.124;2022-10-17T16:09:29;32.13;;;19.20;;
33347;SDS011;19707;51.158;17.124;2022-10-17T16:12:30;28.40;;;19.42;;
33347;SDS011;19707;51.158;17.124;2022-10-17T16:15:34;25.17;;;17.70;;
33347;SDS011;19707;51.158;17.124;2022-10-17T16:18:35;23.05;;;16.30;;
33347;SDS011;19707;51.158;17.124;2022-10-17T16:21:37;25.88;;;16.07;;
33347;SDS011;19707;51.158;17.124;2022-10-17T16:24:40;40.98;;;25.65;;
33347;SDS011;19707;51.158;17.124;2022-10-17T16:27:41;28.12;;;16.73;;
33347;SDS011;19707;51.158;17.124;2022-10-17T16:30:42;18.10;;;13.55;;
33347;SDS011;19707;51.158;17.124;2022-10-17T16:33:45;21.52;;;12.68;;
33347;SDS011;19707;51.158;17.124;2022-10-17T16:36:47;25.68;;;13.58;;
33347;SDS011;19707;51.158;17.124;2022-10-17T16:39:49;19.20;;;11.55;;
33347;SDS011;19707;51.158;17.124;2022-10-17T16:42:51;21.73;;;11.50;;
33347;SDS011;19707;51.158;17.124;2022-10-17T16:45:53;30.10;;;15.18;;
33347;SDS011;19707;51.158;17.124;2022-10-17T16:48:54;14.60;;;10.53;;
33347;SDS011;19707;51.158;17.124;2022-10-17T16:51:56;22.52;;;15.53;;
33347;SDS011;19707;51.158;17.124;2022-10-17T16:54:57;28.67;;;21.55;;
33347;SDS011;19707;51.158;17.124;2022-10-17T16:57:59;29.90;;;18.73;;
33347;SDS011;19707;51.158;17.124;2022-10-17T17:01:02;46.48;;;30.20;;
33347;SDS011;19707;51.158;17.124;2022-10-17T17:04:06;34.65;;;24.45;;
33347;SDS011;19707;51.158;17.124;2022-10-17T17:07:09;17.23;;;12.25;;
33347;SDS011;19707;51.158;17.124;2022-10-17T17:10:10;21.80;;;15.45;;
33347;SDS011;19707;51.158;17.124;2022-10-17T17:13:12;14.80;;;10.35;;
33347;SDS011;19707;51.158;17.124;2022-10-17T17:16:14;11.48;;;9.35;;
33347;SDS011;19707;51.158;17.124;2022-10-17T17:19:22;13.08;;;9.10;;
33347;SDS011;19707;51.158;17.124;2022-10-17T17:25:43;19.73;;;11.48;;
33347;SDS011;19707;51.158;17.124;2022-10-17T17:28:45;15.40;;;10.78;;
33347;SDS011;19707;51.158;17.124;2022-10-17T17:31:49;26.77;;;17.05;;
33347;SDS011;19707;51.158;17.124;2022-10-17T17:34:51;13.35;;;10.53;;
33347;SDS011;19707;51.158;17.124;2022-10-17T17:37:52;15.78;;;11.43;;
33347;SDS011;19707;51.158;17.124;2022-10-17T17:40:54;31.02;;;22.73;;
33347;SDS011;19707;51.158;17.124;2022-10-17T17:43:56;28.02;;;19.32;;
33347;SDS011;19707;51.158;17.124;2022-10-17T17:46:58;17.15;;;11.90;;
33347;SDS011;19707;51.158;17.124;2022-10-17T17:49:59;17.67;;;9.48;;
33347;SDS011;19707;51.158;17.124;2022-10-17T17:56:09;11.15;;;8.63;;
33347;SDS011;19707;51.158;17.124;2022-10-17T17:59:19;13.78;;;8.95;;
33347;SDS011;19707;51.158;17.124;2022-10-17T18:02:23;15.58;;;10.32;;
33347;SDS011;19707;51.158;17.124;2022-10-17T18:05:25;12.70;;;9.18;;
33347;SDS011;19707;51.158;17.124;2022-10-17T18:08:27;16.55;;;11.40;;
33347;SDS011;19707;51.158;17.124;2022-10-17T18:11:30;12.03;;;9.40;;
33347;SDS011;19707;51.158;17.124;2022-10-17T18:14:32;11.85;;;8.73;;
33347;SDS011;19707;51.158;17.124;2022-10-17T18:17:34;18.87;;;8.95;;
33347;SDS011;19707;51.158;17.124;2022-10-17T18:20:40;13.03;;;9.13;;
33347;SDS011;19707;51.158;17.124;2022-10-17T18:23:44;20.15;;;14.85;;
33347;SDS011;19707;51.158;17.124;2022-10-17T18:26:47;15.15;;;10.10;;
33347;SDS011;19707;51.158;17.124;2022-10-17T18:29:50;13.43;;;9.35;;
33347;SDS011;19707;51.158;17.124;2022-10-17T18:32:52;24.80;;;12.63;;
33347;SDS011;19707;51.158;17.124;2022-10-17T18:35:54;16.25;;;9.48;;
33347;SDS011;19707;51.158;17.124;2022-10-17T18:38:56;17.02;;;12.00;;
33347;SDS011;19707;51.158;17.124;2022-10-17T18:42:00;16.77;;;10.82;;
33347;SDS011;19707;51.158;17.124;2022-10-17T18:45:02;16.15;;;8.85;;
33347;SDS011;19707;51.158;17.124;2022-10-17T18:48:05;10.38;;;8.25;;
33347;SDS011;19707;51.158;17.124;2022-10-17T18:51:07;12.73;;;9.63;;
33347;SDS011;19707;51.158;17.124;2022-10-17T18:54:11;16.35;;;11.38;;
33347;SDS011;19707;51.158;17.124;2022-10-17T18:57:20;17.55;;;13.28;;
33347;SDS011;19707;51.158;17.124;2022-10-17T19:00:22;18.37;;;10.32;;
33347;SDS011;19707;51.158;17.124;2022-10-17T19:03:24;23.35;;;13.50;;
33347;SDS011;19707;51.158;17.124;2022-10-17T19:06:28;17.80;;;13.05;;
33347;SDS011;19707;51.158;17.124;2022-10-17T19:09:31;13.43;;;9.70;;
33347;SDS011;19707;51.158;17.124;2022-10-17T19:12:33;15.08;;;8.83;;
33347;SDS011;19707;51.158;17.124;2022-10-17T19:15:35;12.13;;;9.75;;
33347;SDS011;19707;51.158;17.124;2022-10-17T19:18:38;15.53;;;8.95;;
33347;SDS011;19707;51.158;17.124;2022-10-17T19:21:40;13.08;;;9.25;;
33347;SDS011;19707;51.158;17.124;2022-10-17T19:24:42;15.35;;;8.70;;
33347;SDS011;19707;51.158;17.124;2022-10-17T19:27:44;13.30;;;9.13;;
33347;SDS011;19707;51.158;17.124;2022-10-17T19:30:51;16.00;;;10.20;;
33347;SDS011;19707;51.158;17.124;2022-10-17T19:33:55;18.92;;;9.60;;
33347;SDS011;19707;51.158;17.124;2022-10-17T19:37:01;15.90;;;10.15;;
33347;SDS011;19707;51.158;17.124;2022-10-17T19:40:04;16.85;;;9.20;;
33347;SDS011;19707;51.158;17.124;2022-10-17T19:43:08;20.15;;;9.28;;
33347;SDS011;19707;51.158;17.124;2022-10-17T19:46:11;13.58;;;9.20;;
33347;SDS011;19707;51.158;17.124;2022-10-17T19:49:17;17.62;;;10.28;;
33347;SDS011;19707;51.158;17.124;2022-10-17T19:52:19;18.57;;;11.38;;
33347;SDS011;19707;51.158;17.124;2022-10-17T19:55:21;19.85;;;9.83;;